sensor_id;sensor_type;location;lat;lon;timestamp;P1;durP1;ratioP1;P2;durP2;ratioP2
14187;SDS011;7175;51.978;5.330;2023-07-22T00:00:49;38.53;;;36.03;;
14187;SDS011;7175;51.978;5.330;2023-07-22T00:03:17;39.80;;;37.30;;
14187;SDS011;7175;51.978;5.330;2023-07-22T00:06:04;40.30;;;37.73;;
14187;SDS011;7175;51.978;5.330;2023-07-22T00:08:33;41.97;;;39.37;;
14187;SDS011;7175;51.978;5.330;2023-07-22T00:11:03;43.30;;;40.60;;
14187;SDS011;7175;51.978;5.330;2023-07-22T00:13:32;43.87;;;41.17;;
14187;SDS011;7175;51.978;5.330;2023-07-22T00:16:01;42.87;;;40.20;;
14187;SDS011;7175;51.978;5.330;2023-07-22T00:18:30;45.27;;;42.50;;
14187;SDS011;7175;51.978;5.330;2023-07-22T00:20:59;46.87;;;44.07;;
14187;SDS011;7175;51.978;5.330;2023-07-22T00:23:27;44.07;;;41.37;;
14187;SDS011;7175;51.978;5.330;2023-07-22T00:25:56;42.50;;;39.90;;
14187;SDS011;7175;51.978;5.330;2023-07-22T00:28:26;42.00;;;39.40;;
14187;SDS011;7175;51.978;5.330;2023-07-22T00:30:54;38.60;;;36.10;;
14187;SDS011;7175;51.978;5.330;2023-07-22T00:33:24;42.70;;;40.10;;
14187;SDS011;7175;51.978;5.330;2023-07-22T00:35:53;42.37;;;39.77;;
14187;SDS011;7175;51.978;5.330;2023-07-22T00:38:21;42.20;;;39.60;;
14187;SDS011;7175;51.978;5.330;2023-07-22T00:40:50;41.00;;;38.40;;
14187;SDS011;7175;51.978;5.330;2023-07-22T00:43:18;39.70;;;37.10;;
14187;SDS011;7175;51.978;5.330;2023-07-22T00:48:28;39.37;;;36.87;;
14187;SDS011;7175;51.978;5.330;2023-07-22T00:50:56;39.13;;;36.63;;
14187;SDS011;7175;51.978;5.330;2023-07-22T00:53:24;40.50;;;37.90;;
14187;SDS011;7175;51.978;5.330;2023-07-22T00:55:53;43.40;;;40.70;;
14187;SDS011;7175;51.978;5.330;2023-07-22T00:58:22;40.63;;;38.03;;
14187;SDS011;7175;51.978;5.330;2023-07-22T01:00:50;41.20;;;38.60;;
14187;SDS011;7175;51.978;5.330;2023-07-22T01:03:20;42.60;;;39.90;;
14187;SDS011;7175;51.978;5.330;2023-07-22T01:05:48;42.53;;;39.83;;
14187;SDS011;7175;51.978;5.330;2023-07-22T01:08:18;42.00;;;39.30;;
14187;SDS011;7175;51.978;5.330;2023-07-22T01:10:46;41.50;;;38.90;;
14187;SDS011;7175;51.978;5.330;2023-07-22T01:13:15;39.07;;;36.57;;
14187;SDS011;7175;51.978;5.330;2023-07-22T01:15:43;39.57;;;37.07;;
14187;SDS011;7175;51.978;5.330;2023-07-22T01:18:11;40.60;;;38.03;;
14187;SDS011;7175;51.978;5.330;2023-07-22T01:20:40;41.50;;;38.90;;
14187;SDS011;7175;51.978;5.330;2023-07-22T01:23:10;41.10;;;38.50;;
14187;SDS011;7175;51.978;5.330;2023-07-22T01:25:39;45.90;;;43.10;;
14187;SDS011;7175;51.978;5.330;2023-07-22T01:28:08;49.30;;;46.40;;
14187;SDS011;7175;51.978;5.330;2023-07-22T01:30:37;52.80;;;49.70;;
14187;SDS011;7175;51.978;5.330;2023-07-22T01:33:06;53.40;;;50.30;;
14187;SDS011;7175;51.978;5.330;2023-07-22T01:35:34;57.07;;;53.77;;
14187;SDS011;7175;51.978;5.330;2023-07-22T01:38:02;57.37;;;54.07;;
14187;SDS011;7175;51.978;5.330;2023-07-22T01:40:32;56.50;;;53.20;;
14187;SDS011;7175;51.978;5.330;2023-07-22T01:43:00;61.10;;;57.60;;
14187;SDS011;7175;51.978;5.330;2023-07-22T01:45:28;61.10;;;57.60;;
14187;SDS011;7175;51.978;5.330;2023-07-22T01:47:56;61.70;;;58.20;;
14187;SDS011;7175;51.978;5.330;2023-07-22T01:50:24;64.93;;;61.23;;
14187;SDS011;7175;51.978;5.330;2023-07-22T01:52:53;69.90;;;66.00;;
14187;SDS011;7175;51.978;5.330;2023-07-22T01:55:21;75.70;;;71.60;;
14187;SDS011;7175;51.978;5.330;2023-07-22T01:57:53;77.30;;;73.10;;
14187;SDS011;7175;51.978;5.330;2023-07-22T02:00:22;85.90;;;81.30;;
14187;SDS011;7175;51.978;5.330;2023-07-22T02:02:50;84.90;;;80.30;;
14187;SDS011;7175;51.978;5.330;2023-07-22T02:05:18;81.80;;;77.30;;
14187;SDS011;7175;51.978;5.330;2023-07-22T02:07:47;81.60;;;77.10;;
14187;SDS011;7175;51.978;5.330;2023-07-22T02:10:15;80.93;;;76.53;;
14187;SDS011;7175;51.978;5.330;2023-07-22T02:12:43;84.43;;;79.83;;
14187;SDS011;7175;51.978;5.330;2023-07-22T02:15:13;91.50;;;86.60;;
14187;SDS011;7175;51.978;5.330;2023-07-22T02:17:42;88.00;;;83.30;;
14187;SDS011;7175;51.978;5.330;2023-07-22T02:20:10;89.30;;;84.50;;
14187;SDS011;7175;51.978;5.330;2023-07-22T02:22:39;95.13;;;90.03;;
14187;SDS011;7175;51.978;5.330;2023-07-22T02:25:07;89.63;;;84.77;;
14187;SDS011;7175;51.978;5.330;2023-07-22T02:27:37;90.40;;;85.60;;
14187;SDS011;7175;51.978;5.330;2023-07-22T02:30:09;93.87;;;88.87;;
14187;SDS011;7175;51.978;5.330;2023-07-22T02:32:40;97.80;;;92.70;;
14187;SDS011;7175;51.978;5.330;2023-07-22T02:35:12;97.23;;;92.03;;
14187;SDS011;7175;51.978;5.330;2023-07-22T02:37:40;97.57;;;92.40;;
14187;SDS011;7175;51.978;5.330;2023-07-22T02:40:09;98.33;;;93.13;;
14187;SDS011;7175;51.978;5.330;2023-07-22T02:42:38;103.50;;;98.00;;
14187;SDS011;7175;51.978;5.330;2023-07-22T02:45:06;101.20;;;95.80;;
14187;SDS011;7175;51.978;5.330;2023-07-22T02:47:35;104.63;;;99.00;;
14187;SDS011;7175;51.978;5.330;2023-07-22T02:50:05;102.70;;;97.17;;
14187;SDS011;7175;51.978;5.330;2023-07-22T02:52:35;102.40;;;96.80;;
14187;SDS011;7175;51.978;5.330;2023-07-22T02:55:04;106.23;;;100.47;;
14187;SDS011;7175;51.978;5.330;2023-07-22T02:57:34;98.70;;;93.37;;
14187;SDS011;7175;51.978;5.330;2023-07-22T03:00:02;101.53;;;96.13;;
14187;SDS011;7175;51.978;5.330;2023-07-22T03:02:34;109.87;;;104.00;;
14187;SDS011;7175;51.978;5.330;2023-07-22T03:05:03;109.97;;;103.97;;
14187;SDS011;7175;51.978;5.330;2023-07-22T03:07:35;111.10;;;105.00;;
14187;SDS011;7175;51.978;5.330;2023-07-22T03:10:04;110.40;;;104.50;;
14187;SDS011;7175;51.978;5.330;2023-07-22T03:12:32;113.73;;;107.63;;
14187;SDS011;7175;51.978;5.330;2023-07-22T03:15:01;119.10;;;112.80;;
14187;SDS011;7175;51.978;5.330;2023-07-22T03:17:31;117.60;;;111.30;;
14187;SDS011;7175;51.978;5.330;2023-07-22T03:19:59;115.30;;;109.10;;
14187;SDS011;7175;51.978;5.330;2023-07-22T03:22:29;118.20;;;111.80;;
14187;SDS011;7175;51.978;5.330;2023-07-22T03:24:57;120.67;;;114.13;;
14187;SDS011;7175;51.978;5.330;2023-07-22T03:27:25;123.97;;;117.27;;
14187;SDS011;7175;51.978;5.330;2023-07-22T03:29:54;126.47;;;119.57;;
14187;SDS011;7175;51.978;5.330;2023-07-22T03:32:22;128.43;;;121.43;;
14187;SDS011;7175;51.978;5.330;2023-07-22T03:34:50;128.53;;;121.57;;
14187;SDS011;7175;51.978;5.330;2023-07-22T03:37:18;128.70;;;121.90;;
14187;SDS011;7175;51.978;5.330;2023-07-22T03:39:48;132.30;;;125.23;;
14187;SDS011;7175;51.978;5.330;2023-07-22T03:42:17;134.50;;;127.30;;
14187;SDS011;7175;51.978;5.330;2023-07-22T03:44:45;136.20;;;128.80;;
14187;SDS011;7175;51.978;5.330;2023-07-22T03:47:16;133.10;;;126.03;;
14187;SDS011;7175;51.978;5.330;2023-07-22T03:49:44;137.63;;;130.23;;
14187;SDS011;7175;51.978;5.330;2023-07-22T03:52:12;138.77;;;131.17;;
14187;SDS011;7175;51.978;5.330;2023-07-22T03:54:44;139.63;;;131.83;;
14187;SDS011;7175;51.978;5.330;2023-07-22T03:57:14;141.37;;;133.37;;
14187;SDS011;7175;51.978;5.330;2023-07-22T03:59:42;139.77;;;131.93;;
14187;SDS011;7175;51.978;5.330;2023-07-22T04:02:10;136.60;;;128.73;;
14187;SDS011;7175;51.978;5.330;2023-07-22T04:04:40;135.00;;;126.70;;
14187;SDS011;7175;51.978;5.330;2023-07-22T04:07:09;134.90;;;126.50;;
14187;SDS011;7175;51.978;5.330;2023-07-22T04:09:37;136.03;;;127.43;;
14187;SDS011;7175;51.978;5.330;2023-07-22T04:12:05;132.60;;;124.20;;
14187;SDS011;7175;51.978;5.330;2023-07-22T04:14:35;131.53;;;123.33;;
14187;SDS011;7175;51.978;5.330;2023-07-22T04:17:04;132.27;;;123.97;;
14187;SDS011;7175;51.978;5.330;2023-07-22T04:19:33;130.70;;;122.40;;
14187;SDS011;7175;51.978;5.330;2023-07-22T04:22:01;128.53;;;120.33;;
14187;SDS011;7175;51.978;5.330;2023-07-22T04:24:31;129.13;;;120.87;;
14187;SDS011;7175;51.978;5.330;2023-07-22T04:27:00;129.57;;;121.27;;
14187;SDS011;7175;51.978;5.330;2023-07-22T04:29:29;129.50;;;121.10;;
14187;SDS011;7175;51.978;5.330;2023-07-22T04:31:59;126.83;;;118.63;;
14187;SDS011;7175;51.978;5.330;2023-07-22T04:34:28;126.30;;;118.20;;
14187;SDS011;7175;51.978;5.330;2023-07-22T04:36:57;125.17;;;117.17;;
14187;SDS011;7175;51.978;5.330;2023-07-22T04:39:25;123.20;;;115.40;;
14187;SDS011;7175;51.978;5.330;2023-07-22T04:41:54;121.00;;;113.50;;
14187;SDS011;7175;51.978;5.330;2023-07-22T04:44:22;120.73;;;113.27;;
14187;SDS011;7175;51.978;5.330;2023-07-22T04:46:51;118.13;;;110.93;;
14187;SDS011;7175;51.978;5.330;2023-07-22T04:49:20;115.03;;;108.03;;
14187;SDS011;7175;51.978;5.330;2023-07-22T04:51:48;113.20;;;106.40;;
14187;SDS011;7175;51.978;5.330;2023-07-22T04:54:17;113.37;;;106.67;;
14187;SDS011;7175;51.978;5.330;2023-07-22T04:56:55;110.13;;;103.63;;
14187;SDS011;7175;51.978;5.330;2023-07-22T04:59:26;108.23;;;101.77;;
14187;SDS011;7175;51.978;5.330;2023-07-22T05:01:54;110.23;;;103.73;;
14187;SDS011;7175;51.978;5.330;2023-07-22T05:04:24;110.37;;;104.07;;
14187;SDS011;7175;51.978;5.330;2023-07-22T05:06:52;111.13;;;104.73;;
14187;SDS011;7175;51.978;5.330;2023-07-22T05:09:20;110.00;;;103.70;;
14187;SDS011;7175;51.978;5.330;2023-07-22T05:11:48;106.83;;;100.73;;
14187;SDS011;7175;51.978;5.330;2023-07-22T05:14:16;106.30;;;100.20;;
14187;SDS011;7175;51.978;5.330;2023-07-22T05:16:44;104.77;;;98.77;;
14187;SDS011;7175;51.978;5.330;2023-07-22T05:19:12;100.17;;;94.47;;
14187;SDS011;7175;51.978;5.330;2023-07-22T05:21:42;98.93;;;93.33;;
14187;SDS011;7175;51.978;5.330;2023-07-22T05:26:58;93.77;;;88.43;;
14187;SDS011;7175;51.978;5.330;2023-07-22T05:29:35;91.80;;;86.60;;
14187;SDS011;7175;51.978;5.330;2023-07-22T05:32:03;96.33;;;90.93;;
14187;SDS011;7175;51.978;5.330;2023-07-22T05:34:52;86.50;;;81.60;;
14187;SDS011;7175;51.978;5.330;2023-07-22T05:37:22;83.57;;;78.77;;
14187;SDS011;7175;51.978;5.330;2023-07-22T05:39:50;81.73;;;76.97;;
14187;SDS011;7175;51.978;5.330;2023-07-22T05:42:18;72.17;;;67.77;;
14187;SDS011;7175;51.978;5.330;2023-07-22T05:44:47;70.63;;;66.33;;
14187;SDS011;7175;51.978;5.330;2023-07-22T05:47:15;68.07;;;63.87;;
14187;SDS011;7175;51.978;5.330;2023-07-22T05:49:44;65.43;;;61.43;;
14187;SDS011;7175;51.978;5.330;2023-07-22T05:52:14;63.37;;;59.47;;
14187;SDS011;7175;51.978;5.330;2023-07-22T05:54:46;61.17;;;57.37;;
14187;SDS011;7175;51.978;5.330;2023-07-22T05:57:14;58.20;;;54.53;;
14187;SDS011;7175;51.978;5.330;2023-07-22T05:59:42;52.73;;;49.33;;
14187;SDS011;7175;51.978;5.330;2023-07-22T06:02:13;49.97;;;46.70;;
14187;SDS011;7175;51.978;5.330;2023-07-22T06:04:42;50.50;;;47.20;;
14187;SDS011;7175;51.978;5.330;2023-07-22T06:07:10;49.50;;;46.20;;
14187;SDS011;7175;51.978;5.330;2023-07-22T06:09:38;48.10;;;44.90;;
14187;SDS011;7175;51.978;5.330;2023-07-22T06:12:08;48.80;;;45.60;;
14187;SDS011;7175;51.978;5.330;2023-07-22T06:14:36;44.80;;;41.80;;
14187;SDS011;7175;51.978;5.330;2023-07-22T06:17:04;42.33;;;39.43;;
14187;SDS011;7175;51.978;5.330;2023-07-22T06:19:33;39.37;;;36.67;;
14187;SDS011;7175;51.978;5.330;2023-07-22T06:22:01;37.93;;;35.33;;
14187;SDS011;7175;51.978;5.330;2023-07-22T06:24:29;38.17;;;35.57;;
14187;SDS011;7175;51.978;5.330;2023-07-22T06:26:57;34.70;;;32.20;;
14187;SDS011;7175;51.978;5.330;2023-07-22T06:29:27;33.57;;;31.17;;
14187;SDS011;7175;51.978;5.330;2023-07-22T06:31:55;32.33;;;29.93;;
14187;SDS011;7175;51.978;5.330;2023-07-22T06:34:24;30.50;;;28.20;;
14187;SDS011;7175;51.978;5.330;2023-07-22T06:36:52;29.23;;;27.03;;
14187;SDS011;7175;51.978;5.330;2023-07-22T06:39:20;29.50;;;27.30;;
14187;SDS011;7175;51.978;5.330;2023-07-22T06:41:49;29.83;;;27.60;;
14187;SDS011;7175;51.978;5.330;2023-07-22T06:44:17;28.83;;;26.63;;
14187;SDS011;7175;51.978;5.330;2023-07-22T06:46:46;27.83;;;25.73;;
14187;SDS011;7175;51.978;5.330;2023-07-22T06:49:19;27.03;;;24.93;;
14187;SDS011;7175;51.978;5.330;2023-07-22T06:51:47;26.00;;;24.00;;
14187;SDS011;7175;51.978;5.330;2023-07-22T06:54:15;25.93;;;23.93;;
14187;SDS011;7175;51.978;5.330;2023-07-22T06:56:43;26.10;;;24.10;;
14187;SDS011;7175;51.978;5.330;2023-07-22T06:59:16;25.73;;;23.73;;
14187;SDS011;7175;51.978;5.330;2023-07-22T07:01:44;25.93;;;23.93;;
14187;SDS011;7175;51.978;5.330;2023-07-22T07:04:14;24.93;;;23.03;;
14187;SDS011;7175;51.978;5.330;2023-07-22T07:06:42;25.50;;;23.57;;
14187;SDS011;7175;51.978;5.330;2023-07-22T07:09:12;25.10;;;23.20;;
14187;SDS011;7175;51.978;5.330;2023-07-22T07:11:40;24.63;;;22.73;;
14187;SDS011;7175;51.978;5.330;2023-07-22T07:14:08;24.23;;;22.33;;
14187;SDS011;7175;51.978;5.330;2023-07-22T07:16:36;24.80;;;22.90;;
14187;SDS011;7175;51.978;5.330;2023-07-22T07:19:06;24.20;;;22.30;;
14187;SDS011;7175;51.978;5.330;2023-07-22T07:21:35;23.33;;;21.43;;
14187;SDS011;7175;51.978;5.330;2023-07-22T07:24:03;22.73;;;20.93;;
14187;SDS011;7175;51.978;5.330;2023-07-22T07:26:31;22.80;;;21.00;;
14187;SDS011;7175;51.978;5.330;2023-07-22T07:29:00;21.90;;;20.20;;
14187;SDS011;7175;51.978;5.330;2023-07-22T07:31:28;22.13;;;20.43;;
14187;SDS011;7175;51.978;5.330;2023-07-22T07:34:01;22.10;;;20.40;;
14187;SDS011;7175;51.978;5.330;2023-07-22T07:36:32;22.50;;;20.77;;
14187;SDS011;7175;51.978;5.330;2023-07-22T07:39:01;22.67;;;20.87;;
14187;SDS011;7175;51.978;5.330;2023-07-22T07:41:29;21.80;;;20.10;;
14187;SDS011;7175;51.978;5.330;2023-07-22T07:43:57;22.07;;;20.37;;
14187;SDS011;7175;51.978;5.330;2023-07-22T07:46:26;21.53;;;19.83;;
14187;SDS011;7175;51.978;5.330;2023-07-22T07:48:57;21.70;;;20.00;;
14187;SDS011;7175;51.978;5.330;2023-07-22T07:51:27;21.50;;;19.80;;
14187;SDS011;7175;51.978;5.330;2023-07-22T07:53:58;22.13;;;20.43;;
14187;SDS011;7175;51.978;5.330;2023-07-22T07:56:26;22.20;;;20.50;;
14187;SDS011;7175;51.978;5.330;2023-07-22T07:58:56;22.20;;;20.50;;
14187;SDS011;7175;51.978;5.330;2023-07-22T08:01:24;22.23;;;20.53;;
14187;SDS011;7175;51.978;5.330;2023-07-22T08:03:52;21.97;;;20.27;;
14187;SDS011;7175;51.978;5.330;2023-07-22T08:06:21;21.87;;;20.17;;
14187;SDS011;7175;51.978;5.330;2023-07-22T08:08:49;21.87;;;20.17;;
14187;SDS011;7175;51.978;5.330;2023-07-22T08:11:19;21.97;;;20.27;;
14187;SDS011;7175;51.978;5.330;2023-07-22T08:13:47;21.50;;;19.90;;
14187;SDS011;7175;51.978;5.330;2023-07-22T08:16:17;21.40;;;19.80;;
14187;SDS011;7175;51.978;5.330;2023-07-22T08:18:46;21.80;;;20.10;;
14187;SDS011;7175;51.978;5.330;2023-07-22T08:21:14;21.93;;;20.23;;
14187;SDS011;7175;51.978;5.330;2023-07-22T08:23:42;21.93;;;20.23;;
14187;SDS011;7175;51.978;5.330;2023-07-22T08:26:13;22.03;;;20.33;;
14187;SDS011;7175;51.978;5.330;2023-07-22T08:28:45;21.83;;;20.13;;
14187;SDS011;7175;51.978;5.330;2023-07-22T08:31:14;21.90;;;20.20;;
14187;SDS011;7175;51.978;5.330;2023-07-22T08:33:42;21.67;;;19.97;;
14187;SDS011;7175;51.978;5.330;2023-07-22T08:36:11;21.50;;;19.80;;
14187;SDS011;7175;51.978;5.330;2023-07-22T08:38:39;21.67;;;19.97;;
14187;SDS011;7175;51.978;5.330;2023-07-22T08:41:07;21.87;;;20.17;;
14187;SDS011;7175;51.978;5.330;2023-07-22T08:43:36;21.60;;;19.90;;
14187;SDS011;7175;51.978;5.330;2023-07-22T08:46:12;21.13;;;19.53;;
14187;SDS011;7175;51.978;5.330;2023-07-22T08:48:41;20.80;;;19.20;;
14187;SDS011;7175;51.978;5.330;2023-07-22T08:51:11;20.70;;;19.10;;
14187;SDS011;7175;51.978;5.330;2023-07-22T08:53:43;20.87;;;19.27;;
14187;SDS011;7175;51.978;5.330;2023-07-22T08:56:25;20.93;;;19.33;;
14187;SDS011;7175;51.978;5.330;2023-07-22T08:58:55;20.63;;;19.03;;
14187;SDS011;7175;51.978;5.330;2023-07-22T09:01:26;20.73;;;19.13;;
14187;SDS011;7175;51.978;5.330;2023-07-22T09:03:55;20.57;;;18.97;;
14187;SDS011;7175;51.978;5.330;2023-07-22T09:06:25;20.80;;;19.20;;
14187;SDS011;7175;51.978;5.330;2023-07-22T09:08:54;20.90;;;19.30;;
14187;SDS011;7175;51.978;5.330;2023-07-22T09:11:23;20.73;;;19.13;;
14187;SDS011;7175;51.978;5.330;2023-07-22T09:13:53;20.83;;;19.23;;
14187;SDS011;7175;51.978;5.330;2023-07-22T09:16:21;20.80;;;19.20;;
14187;SDS011;7175;51.978;5.330;2023-07-22T09:18:57;20.67;;;19.07;;
14187;SDS011;7175;51.978;5.330;2023-07-22T09:21:26;20.90;;;19.30;;
14187;SDS011;7175;51.978;5.330;2023-07-22T09:23:55;20.80;;;19.20;;
14187;SDS011;7175;51.978;5.330;2023-07-22T09:26:25;20.80;;;19.20;;
14187;SDS011;7175;51.978;5.330;2023-07-22T09:28:54;20.23;;;18.63;;
14187;SDS011;7175;51.978;5.330;2023-07-22T09:31:25;20.57;;;18.97;;
14187;SDS011;7175;51.978;5.330;2023-07-22T09:33:55;20.80;;;19.20;;
14187;SDS011;7175;51.978;5.330;2023-07-22T09:36:48;20.43;;;18.83;;
14187;SDS011;7175;51.978;5.330;2023-07-22T09:39:18;20.73;;;19.13;;
14187;SDS011;7175;51.978;5.330;2023-07-22T09:41:47;20.70;;;19.10;;
14187;SDS011;7175;51.978;5.330;2023-07-22T09:44:16;20.67;;;19.07;;
14187;SDS011;7175;51.978;5.330;2023-07-22T09:46:46;20.43;;;18.83;;
14187;SDS011;7175;51.978;5.330;2023-07-22T09:49:17;20.27;;;18.67;;
14187;SDS011;7175;51.978;5.330;2023-07-22T09:51:47;20.70;;;19.10;;
14187;SDS011;7175;51.978;5.330;2023-07-22T09:54:28;21.23;;;19.60;;
14187;SDS011;7175;51.978;5.330;2023-07-22T09:56:58;20.27;;;18.67;;
14187;SDS011;7175;51.978;5.330;2023-07-22T09:59:27;20.83;;;19.23;;
14187;SDS011;7175;51.978;5.330;2023-07-22T10:01:57;20.60;;;19.00;;
14187;SDS011;7175;51.978;5.330;2023-07-22T10:04:35;20.47;;;18.87;;
14187;SDS011;7175;51.978;5.330;2023-07-22T10:07:05;20.23;;;18.63;;
14187;SDS011;7175;51.978;5.330;2023-07-22T10:09:35;20.40;;;18.80;;
14187;SDS011;7175;51.978;5.330;2023-07-22T10:12:07;21.23;;;19.53;;
14187;SDS011;7175;51.978;5.330;2023-07-22T10:14:41;21.60;;;19.90;;
14187;SDS011;7175;51.978;5.330;2023-07-22T10:17:09;21.67;;;19.97;;
14187;SDS011;7175;51.978;5.330;2023-07-22T10:19:41;21.10;;;19.40;;
14187;SDS011;7175;51.978;5.330;2023-07-22T10:22:14;21.27;;;19.57;;
14187;SDS011;7175;51.978;5.330;2023-07-22T10:24:42;21.50;;;19.80;;
14187;SDS011;7175;51.978;5.330;2023-07-22T10:27:12;21.10;;;19.50;;
14187;SDS011;7175;51.978;5.330;2023-07-22T10:29:44;21.37;;;19.67;;
14187;SDS011;7175;51.978;5.330;2023-07-22T10:32:13;20.20;;;18.60;;
14187;SDS011;7175;51.978;5.330;2023-07-22T10:34:45;20.90;;;19.20;;
14187;SDS011;7175;51.978;5.330;2023-07-22T10:37:13;21.70;;;20.00;;
14187;SDS011;7175;51.978;5.330;2023-07-22T10:39:41;21.30;;;19.60;;
14187;SDS011;7175;51.978;5.330;2023-07-22T10:42:09;21.57;;;19.87;;
14187;SDS011;7175;51.978;5.330;2023-07-22T10:44:52;21.23;;;19.63;;
14187;SDS011;7175;51.978;5.330;2023-07-22T10:50:09;20.53;;;18.93;;
14187;SDS011;7175;51.978;5.330;2023-07-22T10:52:39;20.60;;;19.00;;
14187;SDS011;7175;51.978;5.330;2023-07-22T10:55:14;20.97;;;19.37;;
14187;SDS011;7175;51.978;5.330;2023-07-22T10:57:49;21.03;;;19.43;;
14187;SDS011;7175;51.978;5.330;2023-07-22T11:00:19;20.77;;;19.17;;
14187;SDS011;7175;51.978;5.330;2023-07-22T11:05:50;19.80;;;18.30;;
14187;SDS011;7175;51.978;5.330;2023-07-22T11:08:35;20.23;;;18.63;;
14187;SDS011;7175;51.978;5.330;2023-07-22T11:11:04;20.30;;;18.70;;
14187;SDS011;7175;51.978;5.330;2023-07-22T11:13:34;19.87;;;18.27;;
14187;SDS011;7175;51.978;5.330;2023-07-22T11:16:09;20.23;;;18.63;;
14187;SDS011;7175;51.978;5.330;2023-07-22T11:18:38;20.30;;;18.70;;
14187;SDS011;7175;51.978;5.330;2023-07-22T11:21:09;20.60;;;19.00;;
14187;SDS011;7175;51.978;5.330;2023-07-22T11:23:38;20.50;;;18.90;;
14187;SDS011;7175;51.978;5.330;2023-07-22T11:26:09;20.83;;;19.23;;
14187;SDS011;7175;51.978;5.330;2023-07-22T11:28:38;20.30;;;18.70;;
14187;SDS011;7175;51.978;5.330;2023-07-22T11:31:08;19.77;;;18.23;;
14187;SDS011;7175;51.978;5.330;2023-07-22T11:33:42;19.33;;;17.83;;
14187;SDS011;7175;51.978;5.330;2023-07-22T11:36:15;20.23;;;18.63;;
14187;SDS011;7175;51.978;5.330;2023-07-22T11:38:43;20.40;;;18.80;;
14187;SDS011;7175;51.978;5.330;2023-07-22T11:41:12;20.33;;;18.73;;
14187;SDS011;7175;51.978;5.330;2023-07-22T11:43:41;21.37;;;19.77;;
14187;SDS011;7175;51.978;5.330;2023-07-22T11:46:09;21.20;;;19.60;;
14187;SDS011;7175;51.978;5.330;2023-07-22T11:48:38;21.90;;;20.30;;
14187;SDS011;7175;51.978;5.330;2023-07-22T11:51:10;21.87;;;20.27;;
14187;SDS011;7175;51.978;5.330;2023-07-22T11:53:39;20.40;;;18.80;;
14187;SDS011;7175;51.978;5.330;2023-07-22T11:56:09;20.93;;;19.33;;
14187;SDS011;7175;51.978;5.330;2023-07-22T11:58:38;21.60;;;19.93;;
14187;SDS011;7175;51.978;5.330;2023-07-22T12:01:07;22.33;;;20.63;;
14187;SDS011;7175;51.978;5.330;2023-07-22T12:03:38;22.67;;;20.87;;
14187;SDS011;7175;51.978;5.330;2023-07-22T12:06:07;23.40;;;21.50;;
14187;SDS011;7175;51.978;5.330;2023-07-22T12:08:36;23.60;;;21.70;;
14187;SDS011;7175;51.978;5.330;2023-07-22T12:11:08;23.20;;;21.30;;
14187;SDS011;7175;51.978;5.330;2023-07-22T12:13:43;22.43;;;20.63;;
14187;SDS011;7175;51.978;5.330;2023-07-22T12:16:12;23.30;;;21.40;;
14187;SDS011;7175;51.978;5.330;2023-07-22T12:18:41;23.50;;;21.60;;
14187;SDS011;7175;51.978;5.330;2023-07-22T12:21:10;24.20;;;22.30;;
14187;SDS011;7175;51.978;5.330;2023-07-22T12:23:41;25.20;;;23.20;;
14187;SDS011;7175;51.978;5.330;2023-07-22T12:26:11;23.90;;;22.00;;
14187;SDS011;7175;51.978;5.330;2023-07-22T12:28:39;24.07;;;22.17;;
14187;SDS011;7175;51.978;5.330;2023-07-22T12:31:10;23.97;;;22.07;;
14187;SDS011;7175;51.978;5.330;2023-07-22T12:33:43;23.77;;;21.87;;
14187;SDS011;7175;51.978;5.330;2023-07-22T12:36:11;22.43;;;20.63;;
14187;SDS011;7175;51.978;5.330;2023-07-22T12:38:42;21.57;;;19.87;;
14187;SDS011;7175;51.978;5.330;2023-07-22T12:41:13;21.70;;;20.00;;
14187;SDS011;7175;51.978;5.330;2023-07-22T12:43:42;21.40;;;19.80;;
14187;SDS011;7175;51.978;5.330;2023-07-22T12:46:10;20.67;;;19.07;;
14187;SDS011;7175;51.978;5.330;2023-07-22T12:48:39;20.20;;;18.70;;
14187;SDS011;7175;51.978;5.330;2023-07-22T12:51:07;21.23;;;19.53;;
14187;SDS011;7175;51.978;5.330;2023-07-22T12:53:36;21.20;;;19.60;;
14187;SDS011;7175;51.978;5.330;2023-07-22T12:56:05;21.53;;;19.83;;
14187;SDS011;7175;51.978;5.330;2023-07-22T12:58:34;21.47;;;19.77;;
14187;SDS011;7175;51.978;5.330;2023-07-22T13:01:02;21.27;;;19.67;;
14187;SDS011;7175;51.978;5.330;2023-07-22T13:03:31;21.70;;;20.00;;
14187;SDS011;7175;51.978;5.330;2023-07-22T13:05:59;21.60;;;20.00;;
14187;SDS011;7175;51.978;5.330;2023-07-22T13:08:28;21.33;;;19.73;;
14187;SDS011;7175;51.978;5.330;2023-07-22T13:10:56;21.97;;;20.37;;
14187;SDS011;7175;51.978;5.330;2023-07-22T13:13:25;21.33;;;19.73;;
14187;SDS011;7175;51.978;5.330;2023-07-22T13:15:54;21.10;;;19.50;;
14187;SDS011;7175;51.978;5.330;2023-07-22T13:18:23;21.43;;;19.83;;
14187;SDS011;7175;51.978;5.330;2023-07-22T13:20:51;22.60;;;20.90;;
14187;SDS011;7175;51.978;5.330;2023-07-22T13:23:20;22.63;;;20.93;;
14187;SDS011;7175;51.978;5.330;2023-07-22T13:25:48;22.40;;;20.70;;
14187;SDS011;7175;51.978;5.330;2023-07-22T13:28:16;23.70;;;21.90;;
14187;SDS011;7175;51.978;5.330;2023-07-22T13:30:43;24.00;;;22.20;;
14187;SDS011;7175;51.978;5.330;2023-07-22T13:33:13;24.80;;;22.90;;
14187;SDS011;7175;51.978;5.330;2023-07-22T13:35:44;24.37;;;22.47;;
14187;SDS011;7175;51.978;5.330;2023-07-22T13:38:17;24.07;;;22.17;;
14187;SDS011;7175;51.978;5.330;2023-07-22T13:40:45;24.40;;;22.50;;
14187;SDS011;7175;51.978;5.330;2023-07-22T13:43:13;24.17;;;22.27;;
14187;SDS011;7175;51.978;5.330;2023-07-22T13:45:41;23.70;;;21.80;;
14187;SDS011;7175;51.978;5.330;2023-07-22T13:48:09;24.50;;;22.60;;
14187;SDS011;7175;51.978;5.330;2023-07-22T13:50:48;24.00;;;22.10;;
14187;SDS011;7175;51.978;5.330;2023-07-22T13:53:16;23.67;;;21.77;;
14187;SDS011;7175;51.978;5.330;2023-07-22T13:55:44;24.43;;;22.53;;
14187;SDS011;7175;51.978;5.330;2023-07-22T13:58:18;24.53;;;22.63;;
14187;SDS011;7175;51.978;5.330;2023-07-22T14:00:46;23.83;;;21.93;;
14187;SDS011;7175;51.978;5.330;2023-07-22T14:03:14;23.10;;;21.20;;
14187;SDS011;7175;51.978;5.330;2023-07-22T14:05:42;23.20;;;21.30;;
14187;SDS011;7175;51.978;5.330;2023-07-22T14:08:12;22.43;;;20.63;;
14187;SDS011;7175;51.978;5.330;2023-07-22T14:10:40;22.33;;;20.53;;
14187;SDS011;7175;51.978;5.330;2023-07-22T14:13:08;22.13;;;20.33;;
14187;SDS011;7175;51.978;5.330;2023-07-22T14:15:36;21.93;;;20.23;;
14187;SDS011;7175;51.978;5.330;2023-07-22T14:18:04;22.13;;;20.43;;
14187;SDS011;7175;51.978;5.330;2023-07-22T14:20:35;22.23;;;20.53;;
14187;SDS011;7175;51.978;5.330;2023-07-22T14:23:05;21.73;;;20.03;;
14187;SDS011;7175;51.978;5.330;2023-07-22T14:25:34;21.60;;;19.90;;
14187;SDS011;7175;51.978;5.330;2023-07-22T14:28:05;21.30;;;19.70;;
14187;SDS011;7175;51.978;5.330;2023-07-22T14:30:39;21.10;;;19.50;;
14187;SDS011;7175;51.978;5.330;2023-07-22T14:33:11;20.73;;;19.13;;
14187;SDS011;7175;51.978;5.330;2023-07-22T14:35:39;20.60;;;19.00;;
14187;SDS011;7175;51.978;5.330;2023-07-22T14:38:08;20.07;;;18.57;;
14187;SDS011;7175;51.978;5.330;2023-07-22T14:40:38;20.03;;;18.53;;
14187;SDS011;7175;51.978;5.330;2023-07-22T14:43:07;20.13;;;18.63;;
14187;SDS011;7175;51.978;5.330;2023-07-22T14:45:35;20.33;;;18.83;;
14187;SDS011;7175;51.978;5.330;2023-07-22T14:48:03;20.07;;;18.57;;
14187;SDS011;7175;51.978;5.330;2023-07-22T14:50:31;20.33;;;18.83;;
14187;SDS011;7175;51.978;5.330;2023-07-22T14:52:59;21.13;;;19.53;;
14187;SDS011;7175;51.978;5.330;2023-07-22T14:55:28;21.20;;;19.60;;